createdAt,value
2019-04-30T00:00:46.487Z,94.28
2019-04-30T00:05:57.327Z,92.99
2019-04-30T00:11:02.122Z,92.17
2019-04-30T00:16:08.308Z,91.58
2019-04-30T00:21:15.161Z,88.98
2019-04-30T00:26:20.901Z,88.68
2019-04-30T00:31:27.480Z,88.32
2019-04-30T00:36:34.202Z,88.24
2019-04-30T00:41:44.104Z,86.41
2019-04-30T00:46:48.325Z,87.06
2019-04-30T00:51:57.174Z,85.94
2019-04-30T00:57:04.437Z,84.10
2019-04-30T01:02:29.090Z,85.92
2019-04-30T01:07:26.827Z,87.70
2019-04-30T01:12:38.483Z,87.96
2019-04-30T01:17:40.877Z,84.88
2019-04-30T01:22:45.946Z,84.64
2019-04-30T01:27:51.516Z,84.76
2019-04-30T01:32:58.171Z,84.83
2019-04-30T01:38:04.068Z,85.12
2019-04-30T01:43:15.208Z,84.15
2019-04-30T01:48:20.249Z,85.34
2019-04-30T01:53:28.490Z,85.89
2019-04-30T01:58:40.857Z,86.46
2019-04-30T02:03:46.273Z,85.55
2019-04-30T02:08:51.323Z,84.17
2019-04-30T02:13:56.387Z,84.81
2019-04-30T02:19:01.773Z,83.92
2019-04-30T02:24:08.930Z,84.81
2019-04-30T02:29:14.151Z,84.74
2019-04-30T02:34:30.289Z,83.53
2019-04-30T02:39:35.826Z,82.55
2019-04-30T02:44:42.041Z,82.44
2019-04-30T02:49:52.910Z,81.23
2019-04-30T02:54:54.757Z,80.62
2019-04-30T03:00:14.161Z,79.93
2019-04-30T03:05:20.269Z,80.97
2019-04-30T03:10:26.064Z,81.07
2019-04-30T03:15:31.451Z,79.25
2019-04-30T03:20:54.560Z,78.98
2019-04-30T03:25:59.891Z,77.98
2019-04-30T03:31:05.713Z,78.25
2019-04-30T03:36:12.804Z,77.93
2019-04-30T03:41:19.906Z,78.79
2019-04-30T03:46:26.387Z,77.55
2019-04-30T03:51:31.370Z,76.87
2019-04-30T03:56:39.477Z,77.73
2019-04-30T04:02:05.946Z,78.12
2019-04-30T04:07:29.812Z,77.01
2019-04-30T04:12:34.163Z,77.30
2019-04-30T04:17:39.940Z,77.14
2019-04-30T04:22:45.537Z,77.39
2019-04-30T04:27:52.280Z,78.32
2019-04-30T04:32:59.681Z,77.83
2019-04-30T04:38:04.307Z,78.72
2019-04-30T04:43:10.458Z,78.20
2019-04-30T04:48:15.783Z,77.76
2019-04-30T04:53:21.431Z,78.63
2019-04-30T04:58:26.462Z,78.88
2019-04-30T05:03:34.922Z,77.70
2019-04-30T05:08:40.187Z,78.84
2019-04-30T05:13:52.753Z,78.49
2019-04-30T05:19:01.223Z,77.47
2019-04-30T05:24:09.054Z,77.80
2019-04-30T05:29:14.329Z,78.93
2019-04-30T05:34:19.462Z,78.17
2019-04-30T05:39:24.441Z,78.33
2019-04-30T05:44:29.921Z,78.12
2019-04-30T05:49:35.167Z,77.63
2019-04-30T05:54:40.510Z,77.28
2019-04-30T05:59:48.869Z,77.27
2019-04-30T06:04:55.463Z,77.78
2019-04-30T06:10:29.428Z,78.27
2019-04-30T06:15:50.749Z,76.61
2019-04-30T06:20:59.466Z,76.86
2019-04-30T06:26:36.594Z,76.68
2019-04-30T06:32:09.537Z,77.52
2019-04-30T06:37:19.417Z,76.89
2019-04-30T06:42:32.055Z,78.12
2019-04-30T06:47:39.062Z,76.70
2019-04-30T06:52:56.262Z,76.64
2019-04-30T06:57:56.383Z,76.89
2019-04-30T07:03:02.768Z,76.85
2019-04-30T07:08:38.865Z,76.74
2019-04-30T07:13:33.909Z,75.90
2019-04-30T07:18:39.110Z,74.58
2019-04-30T07:23:45.404Z,74.34
2019-04-30T07:28:54.835Z,74.69
2019-04-30T07:33:59.268Z,73.85
2019-04-30T07:39:31.221Z,74.09
2019-04-30T07:44:36.480Z,73.59
2019-04-30T07:49:49.435Z,73.28
2019-04-30T07:54:45.693Z,72.79
2019-04-30T07:59:51.529Z,71.78
2019-04-30T08:05:02.940Z,72.01
2019-04-30T08:10:09.061Z,71.03
2019-04-30T08:15:14.158Z,71.67
2019-04-30T08:20:21.369Z,70.30
2019-04-30T08:25:29.056Z,71.38
2019-04-30T08:30:34.493Z,70.65
2019-04-30T08:35:39.971Z,69.96
2019-04-30T08:40:55.513Z,69.00
2019-04-30T08:45:53.204Z,70.69
2019-04-30T08:51:02.155Z,70.02
2019-04-30T08:56:10.113Z,68.74
2019-04-30T09:01:16.567Z,69.27
2019-04-30T09:06:29.130Z,67.35
2019-04-30T09:11:43.114Z,66.91
2019-04-30T09:16:40.545Z,63.97
2019-04-30T09:21:48.883Z,64.67
2019-04-30T09:26:55.814Z,64.25
2019-04-30T09:32:01.036Z,62.99
2019-04-30T09:37:06.111Z,63.23
2019-04-30T09:42:11.713Z,59.71
2019-04-30T09:47:16.809Z,59.31
2019-04-30T09:52:23.160Z,59.63
2019-04-30T09:57:29.005Z,57.41
2019-04-30T10:02:34.456Z,54.86
2019-04-30T10:07:39.899Z,56.56
2019-04-30T10:12:45.583Z,52.46
2019-04-30T10:17:53.949Z,51.82
2019-04-30T10:23:01.530Z,49.67
2019-04-30T10:28:10.275Z,48.40
2019-04-30T10:33:15.545Z,50.85
2019-04-30T10:38:20.623Z,46.00
2019-04-30T10:43:26.216Z,43.58
2019-04-30T10:48:31.368Z,42.75
2019-04-30T10:53:36.533Z,42.81
2019-04-30T10:59:04.681Z,42.80
2019-04-30T11:04:11.329Z,41.89
2019-04-30T11:09:16.639Z,40.81
2019-04-30T11:14:21.848Z,38.20
2019-04-30T11:19:29.249Z,36.38
2019-04-30T11:24:38.171Z,36.49
2019-04-30T11:29:41.464Z,33.69
2019-04-30T11:34:47.830Z,31.81
2019-04-30T11:40:01.957Z,31.61
2019-04-30T11:45:10.820Z,32.10
2019-04-30T11:50:16.660Z,31.95
2019-04-30T11:55:24.277Z,31.00
2019-04-30T12:00:36.813Z,31.68
2019-04-30T12:05:43.977Z,31.35
2019-04-30T12:11:15.409Z,31.01
2019-04-30T12:16:22.540Z,31.97
2019-04-30T12:21:28.280Z,30.29
2019-04-30T12:26:34.842Z,28.96
2019-04-30T12:31:41.754Z,30.62
2019-04-30T12:36:46.789Z,30.37
2019-04-30T12:41:52.331Z,29.80
2019-04-30T12:46:58.657Z,28.95
2019-04-30T12:52:15.384Z,28.80
2019-04-30T12:57:29.252Z,28.25
2019-04-30T13:02:34.273Z,28.39
2019-04-30T13:07:40.343Z,26.72
2019-04-30T13:12:46.760Z,26.49
2019-04-30T13:17:54.868Z,27.17
2019-04-30T13:23:02.137Z,26.99
2019-04-30T13:28:14.015Z,26.25
2019-04-30T13:33:31.517Z,26.78
2019-04-30T13:38:52.400Z,27.68
2019-04-30T13:43:59.063Z,26.99
2019-04-30T13:49:05.359Z,27.68
2019-04-30T13:54:10.410Z,27.98
2019-04-30T13:59:15.921Z,25.83
2019-04-30T14:04:40.125Z,25.48
2019-04-30T14:09:45.267Z,26.49
2019-04-30T14:14:50.964Z,25.93
2019-04-30T14:19:56.249Z,26.42
2019-04-30T14:25:01.697Z,27.21
2019-04-30T14:30:09.354Z,26.79
2019-04-30T14:35:14.594Z,26.62
2019-04-30T14:40:26.268Z,26.21
2019-04-30T14:45:42.627Z,26.17
2019-04-30T14:50:49.384Z,25.47
2019-04-30T14:56:19.647Z,28.21
2019-04-30T15:02:01.475Z,25.68
2019-04-30T15:13:19.514Z,24.28
2019-04-30T15:18:29.126Z,24.15
2019-04-30T15:24:09.436Z,26.63
2019-04-30T15:29:16.229Z,26.70
2019-04-30T15:34:24.017Z,26.99
2019-04-30T15:39:39.350Z,27.04
2019-04-30T15:44:45.969Z,26.78
2019-04-30T15:49:51.889Z,27.99
2019-04-30T15:54:59.209Z,29.25
2019-04-30T16:00:06.595Z,29.77
2019-04-30T16:05:33.574Z,30.96
2019-04-30T16:11:09.857Z,31.46
2019-04-30T16:16:14.038Z,32.11
2019-04-30T16:21:21.208Z,31.32
2019-04-30T16:26:31.612Z,31.11
2019-04-30T16:31:42.120Z,30.71
2019-04-30T16:36:46.163Z,30.33
2019-04-30T16:41:52.171Z,30.69
2019-04-30T16:47:12.997Z,31.59
2019-04-30T16:52:09.969Z,32.95
2019-04-30T16:57:17.595Z,33.99
2019-04-30T17:02:24.645Z,33.96
2019-04-30T17:08:19.341Z,34.63
2019-04-30T17:13:41.989Z,34.10
2019-04-30T17:19:04.917Z,34.06
2019-04-30T17:24:10.217Z,34.04
2019-04-30T17:29:15.764Z,33.52
2019-04-30T17:34:21.228Z,32.28
2019-04-30T17:39:26.896Z,32.96
2019-04-30T17:44:32.536Z,32.91
2019-04-30T17:55:49.166Z,32.55
2019-04-30T18:01:09.198Z,32.29
2019-04-30T18:06:16.682Z,31.96
2019-04-30T18:11:22.717Z,32.20
2019-04-30T18:16:28.682Z,32.79
2019-04-30T18:21:41.267Z,33.30
2019-04-30T18:26:53.746Z,33.30
2019-04-30T18:31:59.919Z,33.49
2019-04-30T18:37:05.223Z,33.81
2019-04-30T18:42:12.693Z,34.50
2019-04-30T18:47:18.903Z,35.33
2019-04-30T18:52:24.137Z,36.93
2019-04-30T18:57:29.575Z,38.21
2019-04-30T19:02:34.976Z,39.63
2019-04-30T19:07:56.001Z,40.86
2019-04-30T19:13:13.661Z,42.27
2019-04-30T19:18:29.907Z,43.51
2019-04-30T19:23:35.707Z,44.75
2019-04-30T19:28:49.997Z,45.69
2019-04-30T19:33:56.223Z,45.97
2019-04-30T19:39:01.341Z,47.01
2019-04-30T19:44:08.501Z,47.66
2019-04-30T19:49:13.742Z,48.70
2019-04-30T19:54:20.850Z,49.59
2019-04-30T19:59:26.371Z,50.92
2019-04-30T20:04:35.664Z,51.39
2019-04-30T20:09:38.618Z,52.44
2019-04-30T20:14:43.869Z,53.27
2019-04-30T20:19:49.241Z,54.31
2019-04-30T20:24:54.858Z,54.98
2019-04-30T20:30:02.776Z,55.91
2019-04-30T20:35:09.763Z,56.53
2019-04-30T20:40:18.486Z,57.23
2019-04-30T20:45:24.193Z,58.09
2019-04-30T20:50:29.339Z,57.59
2019-04-30T20:55:34.403Z,58.72
2019-04-30T21:00:39.935Z,58.77
2019-04-30T21:05:46.601Z,58.73
2019-04-30T21:10:56.851Z,58.99
2019-04-30T21:16:02.841Z,59.51
2019-04-30T21:21:09.950Z,59.53
2019-04-30T21:26:16.741Z,60.08
2019-04-30T21:31:56.182Z,59.95
2019-04-30T21:37:04.860Z,60.27
2019-04-30T21:42:10.095Z,59.63
2019-04-30T21:47:15.591Z,60.56
2019-04-30T21:52:20.907Z,60.64
2019-04-30T21:57:27.557Z,60.29
2019-04-30T22:02:34.006Z,60.43
2019-04-30T22:07:40.310Z,61.08
2019-04-30T22:12:46.260Z,61.13
2019-04-30T22:17:57.239Z,60.89
2019-04-30T22:23:04.001Z,61.32
2019-04-30T22:28:41.268Z,61.65
2019-04-30T22:34:10.132Z,63.10
2019-04-30T22:39:29.882Z,63.31
2019-04-30T22:44:37.948Z,63.22
2019-04-30T22:49:45.279Z,63.87
2019-04-30T22:54:58.729Z,64.57
2019-04-30T23:00:20.815Z,65.15
2019-04-30T23:05:26.090Z,66.11
2019-04-30T23:10:31.166Z,67.30
2019-04-30T23:15:37.070Z,69.35
2019-04-30T23:20:42.297Z,70.14
2019-04-30T23:25:47.455Z,70.21
2019-04-30T23:30:52.526Z,71.27
2019-04-30T23:35:58.174Z,72.19
2019-04-30T23:41:04.833Z,73.30
2019-04-30T23:46:10.277Z,74.68
2019-04-30T23:51:15.309Z,75.11
2019-04-30T23:56:20.379Z,75.61
